Time;durP1;ratioP1;P1;durP2;ratioP2;P2;SDS_P1;SDS_P2;PMS_P1;PMS_P2;Temp;Humidity;BMP_temperature;BMP_pressure;BME280_temperature;BME280_humidity;BME280_pressure;Samples;Min_cycle;Max_cycle;Signal;HPM_P1;HPM_P2
2022/01/25 00:29:58;;;;;;;15.75;8.10;;;;;;;;;;5045855;28;20033;-76
2022/01/25 00:32:24;;;;;;;17.08;8.70;;;;;;;;;;5037914;28;20086;-76
2022/01/25 00:34:51;;;;;;;17.67;7.95;;;;;;;;;;5035201;28;20051;-76
2022/01/25 00:37:18;;;;;;;15.07;8.40;;;;;;;;;;5035225;28;20399;-76
2022/01/25 00:39:44;;;;;;;16.02;7.32;;;;;;;;;;5033699;28;20041;-77
2022/01/25 00:42:11;;;;;;;17.95;7.90;;;;;;;;;;5032771;28;20484;-76
2022/01/25 00:44:39;;;;;;;12.98;7.15;;;;;;;;;;5052751;28;20037;-76
2022/01/25 00:47:07;;;;;;;12.40;7.32;;;;;;;;;;5034901;28;20457;-76
2022/01/25 00:49:37;;;;;;;13.60;7.30;;;;;;;;;;5034852;28;20021;-76
2022/01/25 00:52:18;;;;;;;14.63;7.33;;;;;;;;;;5034887;28;20368;-76
2022/01/25 00:54:44;;;;;;;13.65;7.32;;;;;;;;;;5033659;28;20024;-76
2022/01/25 00:57:11;;;;;;;11.73;6.88;;;;;;;;;;5032478;28;20060;-76
2022/01/25 00:59:37;;;;;;;18.20;7.90;;;;;;;;;;5036793;28;20377;-76
2022/01/25 01:02:06;;;;;;;13.23;6.55;;;;;;;;;;5036465;28;20088;-76
2022/01/25 01:04:33;;;;;;;15.50;8.30;;;;;;;;;;5034697;28;20411;-76
2022/01/25 01:07:02;;;;;;;16.60;7.80;;;;;;;;;;5035500;28;20437;-76
2022/01/25 01:09:32;;;;;;;15.68;7.35;;;;;;;;;;5032453;28;20491;-76
2022/01/25 01:12:04;;;;;;;22.55;9.48;;;;;;;;;;5035128;28;20037;-77
2022/01/25 01:34:16;;;;;;;13.27;6.55;;;;;;;;;;5010651;28;20431;-76
2022/01/25 01:36:48;;;;;;;11.80;6.93;;;;;;;;;;4988731;28;20053;-76
2022/01/25 01:41:53;;;;;;;12.50;6.47;;;;;;;;;;5015507;28;20030;-74
2022/01/25 01:44:21;;;;;;;12.05;6.53;;;;;;;;;;5014679;28;20045;-76
2022/01/25 01:47:06;;;;;;;12.13;6.22;;;;;;;;;;5014517;28;20080;-76
2022/01/25 01:49:40;;;;;;;10.43;5.55;;;;;;;;;;5014474;28;20041;-76
2022/01/25 01:52:07;;;;;;;10.23;5.63;;;;;;;;;;5014499;28;20036;-75
2022/01/25 01:54:33;;;;;;;10.07;6.07;;;;;;;;;;5012016;28;20030;-75
2022/01/25 01:56:59;;;;;;;11.90;5.50;;;;;;;;;;5012518;28;20050;-75
2022/01/25 01:59:26;;;;;;;10.75;6.03;;;;;;;;;;5014678;28;20044;-76
2022/01/25 02:01:52;;;;;;;9.95;5.50;;;;;;;;;;5014402;28;20026;-76
2022/01/25 02:04:19;;;;;;;10.15;5.50;;;;;;;;;;5014305;28;20037;-76
2022/01/25 02:06:46;;;;;;;13.75;6.00;;;;;;;;;;5013143;28;20521;-76
2022/01/25 02:09:13;;;;;;;11.95;6.15;;;;;;;;;;5011004;28;20044;-76
2022/01/25 02:11:39;;;;;;;12.55;6.60;;;;;;;;;;5036693;28;20036;-76
2022/01/25 02:14:08;;;;;;;13.20;6.20;;;;;;;;;;5033291;28;20039;-76
2022/01/25 02:17:03;;;;;;;10.43;5.63;;;;;;;;;;5033502;28;20032;-76
2022/01/25 02:22:31;;;;;;;10.57;5.63;;;;;;;;;;5033260;28;20020;-76
2022/01/25 02:24:58;;;;;;;8.73;5.18;;;;;;;;;;5033100;28;20033;-76
2022/01/25 02:27:24;;;;;;;10.32;5.55;;;;;;;;;;5030613;28;20022;-76
2022/01/25 02:29:50;;;;;;;10.75;5.88;;;;;;;;;;5035895;28;20132;-76
2022/01/25 02:32:17;;;;;;;10.00;4.90;;;;;;;;;;5034807;28;20033;-76
2022/01/25 02:34:43;;;;;;;13.75;5.63;;;;;;;;;;5032852;28;20028;-77
2022/01/25 02:37:11;;;;;;;10.45;5.40;;;;;;;;;;5033039;28;20017;-76
2022/01/25 02:39:39;;;;;;;9.95;5.20;;;;;;;;;;5030899;28;20040;-76
2022/01/25 02:42:06;;;;;;;11.82;5.22;;;;;;;;;;5032301;28;20410;-76
2022/01/25 02:44:34;;;;;;;10.07;5.30;;;;;;;;;;5050031;28;20064;-76
2022/01/25 02:49:28;;;;;;;11.77;5.30;;;;;;;;;;5032388;28;20043;-76
2022/01/25 02:51:54;;;;;;;9.52;4.80;;;;;;;;;;5033186;28;20043;-76
2022/01/25 02:54:20;;;;;;;9.82;4.88;;;;;;;;;;5028765;28;20010;-76
2022/01/25 02:56:47;;;;;;;9.13;4.43;;;;;;;;;;5035807;28;20026;-77
2022/01/25 02:59:16;;;;;;;8.50;4.50;;;;;;;;;;5032648;28;20446;-76
2022/01/25 03:01:42;;;;;;;8.85;4.80;;;;;;;;;;5034248;28;20029;-76
2022/01/25 03:04:09;;;;;;;7.25;4.70;;;;;;;;;;5034140;28;20039;-76
2022/01/25 03:06:36;;;;;;;10.65;5.15;;;;;;;;;;5031767;28;20018;-76
2022/01/25 03:09:04;;;;;;;6.93;4.50;;;;;;;;;;5032913;28;20028;-76
2022/01/25 03:11:30;;;;;;;11.30;5.78;;;;;;;;;;5033780;28;20035;-76
2022/01/25 03:14:00;;;;;;;8.25;5.30;;;;;;;;;;5033041;28;20028;-77
2022/01/25 03:18:55;;;;;;;10.15;5.30;;;;;;;;;;5032036;28;20066;-74
2022/01/25 03:23:54;;;;;;;9.23;5.50;;;;;;;;;;5034408;28;20472;-76
2022/01/25 03:26:21;;;;;;;8.90;4.70;;;;;;;;;;5033235;28;20028;-76
2022/01/25 03:28:47;;;;;;;11.75;5.20;;;;;;;;;;5032568;28;20040;-77
2022/01/25 03:31:14;;;;;;;9.05;4.47;;;;;;;;;;5035953;28;20037;-76
2022/01/25 03:33:41;;;;;;;13.38;4.63;;;;;;;;;;5034238;28;20033;-76
2022/01/25 03:36:07;;;;;;;9.20;5.00;;;;;;;;;;5035333;28;20025;-76
2022/01/25 03:38:38;;;;;;;9.48;5.10;;;;;;;;;;5038101;28;20036;-76
2022/01/25 03:41:12;;;;;;;11.63;4.63;;;;;;;;;;5036133;28;20026;-76
2022/01/25 03:43:39;;;;;;;8.57;4.70;;;;;;;;;;5036094;28;20029;-76
2022/01/25 03:46:16;;;;;;;11.25;4.70;;;;;;;;;;5037450;28;20487;-76
2022/01/25 03:51:27;;;;;;;7.88;4.55;;;;;;;;;;5017895;28;20022;-76
2022/01/25 03:53:53;;;;;;;8.48;4.65;;;;;;;;;;5038009;28;20018;-77
2022/01/25 03:56:21;;;;;;;8.68;4.47;;;;;;;;;;5036455;28;20029;-76
2022/01/25 03:58:47;;;;;;;7.38;4.50;;;;;;;;;;5035489;28;20051;-76
2022/01/25 04:01:13;;;;;;;9.23;4.72;;;;;;;;;;5035545;28;20026;-76
2022/01/25 04:03:46;;;;;;;9.65;4.53;;;;;;;;;;5034225;28;20026;-76
2022/01/25 04:06:18;;;;;;;8.13;4.05;;;;;;;;;;5033300;28;20033;-76
2022/01/25 04:08:44;;;;;;;7.88;4.30;;;;;;;;;;5038592;28;20036;-76
2022/01/25 04:11:11;;;;;;;11.82;4.20;;;;;;;;;;5035737;28;20021;-76
2022/01/25 04:13:37;;;;;;;7.47;4.38;;;;;;;;;;5035518;28;20391;-76
2022/01/25 04:16:10;;;;;;;7.95;4.05;;;;;;;;;;5035202;28;20021;-77
2022/01/25 04:18:53;;;;;;;7.30;4.10;;;;;;;;;;5033240;28;20042;-76
2022/01/25 04:26:46;;;;;;;11.00;4.93;;;;;;;;;;5045476;28;20032;-76
2022/01/25 04:29:12;;;;;;;6.60;3.95;;;;;;;;;;5035816;28;20033;-76
2022/01/25 04:31:39;;;;;;;7.65;4.13;;;;;;;;;;5035036;28;20071;-76
2022/01/25 04:34:25;;;;;;;8.05;4.10;;;;;;;;;;5035312;28;20040;-76
2022/01/25 04:53:46;;;;;;;11.85;4.82;;;;;;;;;;5034914;28;20510;-76
2022/01/25 04:58:34;;;;;;;12.38;5.82;;;;;;;;;;5034560;28;20056;-76
2022/01/25 05:01:00;;;;;;;10.90;6.00;;;;;;;;;;5034494;28;20027;-76
2022/01/25 05:03:38;;;;;;;13.52;5.50;;;;;;;;;;5032542;28;20013;-76
2022/01/25 05:06:11;;;;;;;13.60;6.78;;;;;;;;;;5034656;28;20032;-77
2022/01/25 05:08:43;;;;;;;12.93;5.95;;;;;;;;;;5036658;28;20029;-77
2022/01/25 05:11:22;;;;;;;10.73;5.40;;;;;;;;;;5034698;28;20028;-76
2022/01/25 05:19:20;;;;;;;8.48;4.85;;;;;;;;;;5034245;28;20043;-76
2022/01/25 05:24:40;;;;;;;10.00;4.95;;;;;;;;;;5017544;28;20029;-76
2022/01/25 05:27:07;;;;;;;9.25;5.20;;;;;;;;;;5032269;28;20383;-76
2022/01/25 05:29:34;;;;;;;13.95;6.20;;;;;;;;;;5035471;28;20479;-76
2022/01/25 05:32:00;;;;;;;8.13;4.43;;;;;;;;;;5035673;28;20390;-76
2022/01/25 05:34:27;;;;;;;9.23;4.97;;;;;;;;;;5034245;28;20075;-76
2022/01/25 05:36:53;;;;;;;7.72;4.70;;;;;;;;;;5034067;28;20394;-76
2022/01/25 05:39:25;;;;;;;9.10;4.70;;;;;;;;;;5029988;28;20052;-76
2022/01/25 05:41:57;;;;;;;8.77;3.97;;;;;;;;;;5045086;28;20024;-76
2022/01/25 05:44:37;;;;;;;7.78;4.13;;;;;;;;;;5033659;28;20030;-77
2022/01/25 05:47:06;;;;;;;8.70;4.20;;;;;;;;;;5033789;28;20018;-76
2022/01/25 05:49:37;;;;;;;8.43;4.07;;;;;;;;;;5033928;28;20031;-75
2022/01/25 05:52:04;;;;;;;8.50;4.32;;;;;;;;;;5033099;28;20028;-76
2022/01/25 05:54:31;;;;;;;9.57;5.22;;;;;;;;;;5030621;28;20030;-76
2022/01/25 05:56:57;;;;;;;11.98;5.18;;;;;;;;;;5034054;28;21494;-77
2022/01/25 05:59:23;;;;;;;12.95;5.45;;;;;;;;;;5034645;28;20047;-76
2022/01/25 06:01:50;;;;;;;15.32;6.07;;;;;;;;;;5033537;28;20492;-76
2022/01/25 06:04:16;;;;;;;12.85;5.80;;;;;;;;;;5033411;28;20059;-76
2022/01/25 06:06:43;;;;;;;12.63;5.32;;;;;;;;;;5031996;28;20021;-76
2022/01/25 06:09:09;;;;;;;11.43;5.57;;;;;;;;;;5031932;28;20499;-76
2022/01/25 06:11:37;;;;;;;10.40;4.68;;;;;;;;;;5034762;28;20495;-76
2022/01/25 06:14:04;;;;;;;10.10;4.35;;;;;;;;;;5033232;28;20039;-77
2022/01/25 06:16:30;;;;;;;10.02;5.32;;;;;;;;;;5033483;28;20027;-76
2022/01/25 06:18:58;;;;;;;10.85;4.55;;;;;;;;;;5033278;28;20036;-77
2022/01/25 06:21:24;;;;;;;7.85;4.00;;;;;;;;;;5030619;28;20073;-76
2022/01/25 06:23:51;;;;;;;8.10;4.40;;;;;;;;;;5035942;28;20041;-76
2022/01/25 06:26:18;;;;;;;10.77;4.15;;;;;;;;;;5034408;28;20395;-76
2022/01/25 06:28:44;;;;;;;12.85;6.00;;;;;;;;;;5033332;28;20021;-77
2022/01/25 06:31:11;;;;;;;15.13;7.70;;;;;;;;;;5033023;28;20029;-76
2022/01/25 06:33:42;;;;;;;17.23;7.05;;;;;;;;;;5031321;28;20025;-76
2022/01/25 06:36:09;;;;;;;12.15;5.80;;;;;;;;;;5031766;28;20047;-77
2022/01/25 06:38:36;;;;;;;10.95;6.07;;;;;;;;;;5034614;28;20392;-76
2022/01/25 06:41:02;;;;;;;15.20;6.70;;;;;;;;;;5032556;28;20029;-76
2022/01/25 06:43:28;;;;;;;14.02;7.93;;;;;;;;;;5033128;28;20147;-76
2022/01/25 06:45:59;;;;;;;15.52;8.07;;;;;;;;;;5032792;28;20403;-76
2022/01/25 06:48:25;;;;;;;14.23;7.47;;;;;;;;;;5028965;28;20047;-76
2022/01/25 06:50:52;;;;;;;17.20;9.60;;;;;;;;;;5035166;28;20038;-76
2022/01/25 06:53:18;;;;;;;22.48;9.23;;;;;;;;;;5067061;28;20029;-76
2022/01/25 06:55:45;;;;;;;28.33;11.18;;;;;;;;;;5066007;28;20022;-76
2022/01/25 06:58:11;;;;;;;36.92;15.05;;;;;;;;;;5032478;28;20048;-76
2022/01/25 07:00:38;;;;;;;39.63;17.35;;;;;;;;;;5032005;28;20039;-76
2022/01/25 07:03:04;;;;;;;27.98;13.15;;;;;;;;;;5031378;28;20484;-76
2022/01/25 07:05:31;;;;;;;19.08;9.25;;;;;;;;;;5037744;28;20033;-76
2022/01/25 07:07:57;;;;;;;16.58;8.32;;;;;;;;;;5036800;28;20033;-76
2022/01/25 07:10:24;;;;;;;23.77;12.43;;;;;;;;;;5037937;28;20025;-80
2022/01/25 07:12:50;;;;;;;21.25;11.70;;;;;;;;;;5036031;28;20029;-76
2022/01/25 07:15:17;;;;;;;21.83;12.13;;;;;;;;;;5033278;28;20026;-76
2022/01/25 07:17:44;;;;;;;13.90;6.93;;;;;;;;;;5038251;28;20470;-75
2022/01/25 07:20:10;;;;;;;19.80;7.82;;;;;;;;;;5044595;28;20036;-75
2022/01/25 07:22:37;;;;;;;33.05;11.32;;;;;;;;;;5041804;28;20017;-77
2022/01/25 07:25:05;;;;;;;19.88;9.10;;;;;;;;;;5036175;28;20033;-75
2022/01/25 07:27:31;;;;;;;16.38;8.20;;;;;;;;;;5033181;28;20034;-75
2022/01/25 07:29:57;;;;;;;21.88;9.43;;;;;;;;;;5037274;28;20063;-77
2022/01/25 07:32:24;;;;;;;17.85;9.15;;;;;;;;;;5037169;28;20025;-76
2022/01/25 07:34:50;;;;;;;20.88;9.98;;;;;;;;;;5039959;28;20445;-76
2022/01/25 07:37:16;;;;;;;17.88;9.45;;;;;;;;;;5042799;28;20017;-76
2022/01/25 07:39:45;;;;;;;18.55;9.23;;;;;;;;;;5046642;28;20044;-77
2022/01/25 07:42:12;;;;;;;19.95;10.00;;;;;;;;;;5033997;28;20017;-76
2022/01/25 07:44:39;;;;;;;16.02;8.57;;;;;;;;;;5038084;28;20033;-76
2022/01/25 07:47:07;;;;;;;21.70;8.90;;;;;;;;;;5035956;28;20033;-76
2022/01/25 07:49:34;;;;;;;17.63;9.23;;;;;;;;;;5035784;28;20399;-76
2022/01/25 07:52:00;;;;;;;15.23;7.90;;;;;;;;;;5036533;28;20040;-77
2022/01/25 07:54:27;;;;;;;18.50;8.25;;;;;;;;;;5031325;28;20042;-76
2022/01/25 07:56:54;;;;;;;21.10;9.15;;;;;;;;;;5036664;28;20021;-76
2022/01/25 07:59:21;;;;;;;18.17;7.75;;;;;;;;;;5036930;28;20395;-76
2022/01/25 08:01:47;;;;;;;15.15;7.68;;;;;;;;;;5035535;28;20522;-76
2022/01/25 08:04:14;;;;;;;15.90;7.88;;;;;;;;;;5035328;28;20031;-76
2022/01/25 08:06:41;;;;;;;14.80;7.80;;;;;;;;;;5031319;28;20029;-76
2022/01/25 08:09:08;;;;;;;15.93;8.40;;;;;;;;;;5039349;28;20391;-76
2022/01/25 08:11:35;;;;;;;21.10;8.30;;;;;;;;;;5036736;28;20035;-76
2022/01/25 08:14:12;;;;;;;17.70;9.82;;;;;;;;;;5042811;28;20021;-75
2022/01/25 08:16:39;;;;;;;25.80;9.85;;;;;;;;;;5039163;28;20029;-76
2022/01/25 08:19:06;;;;;;;16.90;8.63;;;;;;;;;;5034377;28;20384;-76
2022/01/25 08:21:32;;;;;;;18.60;7.75;;;;;;;;;;5033218;28;20032;-76
2022/01/25 08:23:58;;;;;;;15.20;8.57;;;;;;;;;;5035260;28;20029;-76
2022/01/25 08:26:25;;;;;;;16.60;8.20;;;;;;;;;;5036233;28;20518;-76
2022/01/25 08:28:51;;;;;;;15.77;9.00;;;;;;;;;;5034964;28;20029;-76
2022/01/25 08:31:19;;;;;;;13.23;8.55;;;;;;;;;;5036483;28;20035;-75
2022/01/25 08:33:45;;;;;;;14.35;8.55;;;;;;;;;;5033499;28;20035;-76
2022/01/25 08:36:12;;;;;;;17.90;8.32;;;;;;;;;;5033114;28;20025;-76
2022/01/25 08:38:38;;;;;;;12.18;7.53;;;;;;;;;;5036404;28;20039;-75
2022/01/25 08:41:06;;;;;;;14.80;7.65;;;;;;;;;;5036728;28;20472;-75
2022/01/25 08:43:35;;;;;;;11.70;7.00;;;;;;;;;;5035637;28;20021;-73
2022/01/25 08:46:02;;;;;;;17.45;7.15;;;;;;;;;;5036372;28;20025;-74
2022/01/25 08:48:29;;;;;;;18.08;7.68;;;;;;;;;;5039772;28;20423;-74
2022/01/25 08:50:55;;;;;;;13.45;7.13;;;;;;;;;;5036223;28;20028;-74
2022/01/25 08:53:21;;;;;;;14.07;6.78;;;;;;;;;;5044653;28;20031;-73
2022/01/25 08:55:48;;;;;;;11.88;7.22;;;;;;;;;;5038557;28;20391;-73
2022/01/25 08:58:14;;;;;;;11.98;6.53;;;;;;;;;;5034188;28;20045;-73
2022/01/25 09:00:41;;;;;;;9.80;6.40;;;;;;;;;;5031838;28;20039;-73
2022/01/25 09:03:07;;;;;;;10.85;5.95;;;;;;;;;;5048397;28;20357;-73
2022/01/25 09:05:34;;;;;;;10.32;6.00;;;;;;;;;;5044754;28;20029;-73
2022/01/25 09:08:01;;;;;;;10.95;6.35;;;;;;;;;;5035306;28;20369;-73
2022/01/25 09:10:28;;;;;;;8.32;5.72;;;;;;;;;;5034891;28;20024;-73
2022/01/25 09:12:55;;;;;;;10.90;5.95;;;;;;;;;;5034236;28;20021;-73
2022/01/25 09:15:21;;;;;;;14.02;6.70;;;;;;;;;;5014649;28;20047;-73
2022/01/25 09:17:48;;;;;;;21.50;6.78;;;;;;;;;;5033091;28;20021;-73
2022/01/25 09:20:15;;;;;;;15.48;8.10;;;;;;;;;;5033866;28;20025;-73
2022/01/25 09:22:41;;;;;;;13.85;7.60;;;;;;;;;;5034074;28;20052;-73
2022/01/25 09:25:09;;;;;;;12.25;7.13;;;;;;;;;;5030283;28;20024;-72
2022/01/25 09:27:35;;;;;;;9.25;6.70;;;;;;;;;;5030078;28;20030;-73
2022/01/25 09:30:02;;;;;;;12.00;6.55;;;;;;;;;;5033806;28;20022;-73
2022/01/25 09:32:28;;;;;;;12.25;7.53;;;;;;;;;;5045905;28;20021;-72
2022/01/25 09:34:54;;;;;;;20.55;8.82;;;;;;;;;;5041170;28;20047;-73
2022/01/25 09:37:20;;;;;;;11.05;6.07;;;;;;;;;;5041415;28;20022;-73
2022/01/25 09:39:47;;;;;;;10.95;6.20;;;;;;;;;;5031710;28;20036;-73
2022/01/25 09:42:13;;;;;;;10.43;6.75;;;;;;;;;;5031170;28;20496;-74
2022/01/25 09:44:40;;;;;;;10.85;6.72;;;;;;;;;;5035904;28;20032;-75
2022/01/25 09:47:07;;;;;;;15.63;6.70;;;;;;;;;;5028128;28;20400;-74
2022/01/25 09:49:34;;;;;;;14.52;7.00;;;;;;;;;;5033290;28;20029;-74
2022/01/25 09:52:01;;;;;;;11.25;5.95;;;;;;;;;;5033628;28;20028;-74
2022/01/25 09:54:28;;;;;;;11.55;6.97;;;;;;;;;;5030002;28;20037;-73
2022/01/25 09:56:54;;;;;;;10.63;6.70;;;;;;;;;;5035631;28;20030;-74
2022/01/25 09:59:21;;;;;;;10.80;6.88;;;;;;;;;;5033604;28;20035;-73
2022/01/25 10:01:47;;;;;;;11.25;6.70;;;;;;;;;;5033415;28;20099;-74
2022/01/25 10:04:26;;;;;;;10.35;6.50;;;;;;;;;;5033204;28;20028;-74
2022/01/25 10:06:52;;;;;;;14.30;6.80;;;;;;;;;;5031742;28;20029;-74
2022/01/25 10:09:20;;;;;;;13.90;6.80;;;;;;;;;;5029711;28;20010;-74
2022/01/25 10:11:47;;;;;;;9.80;6.50;;;;;;;;;;5034756;28;20048;-73
2022/01/25 10:14:14;;;;;;;15.02;7.15;;;;;;;;;;5040373;28;21155;-74
2022/01/25 10:16:43;;;;;;;11.75;6.75;;;;;;;;;;5039859;28;20025;-74
2022/01/25 10:19:12;;;;;;;16.20;6.70;;;;;;;;;;5028420;28;20041;-74
2022/01/25 10:21:42;;;;;;;9.18;6.55;;;;;;;;;;5032296;28;20021;-74
2022/01/25 10:24:08;;;;;;;11.85;7.50;;;;;;;;;;5032220;28;20029;-73
2022/01/25 10:26:39;;;;;;;11.57;6.93;;;;;;;;;;5044102;28;20017;-73
2022/01/25 10:29:06;;;;;;;14.45;6.53;;;;;;;;;;5033662;28;20045;-74
2022/01/25 10:31:38;;;;;;;10.65;6.55;;;;;;;;;;5032747;28;20373;-74
2022/01/25 10:34:05;;;;;;;17.15;6.60;;;;;;;;;;5032642;28;20021;-74
2022/01/25 10:36:31;;;;;;;10.55;6.75;;;;;;;;;;5029641;28;20018;-74
2022/01/25 10:38:58;;;;;;;11.85;6.38;;;;;;;;;;5032440;28;20037;-74
2022/01/25 10:41:28;;;;;;;10.98;7.05;;;;;;;;;;5034854;28;20514;-74
2022/01/25 10:43:56;;;;;;;8.98;6.43;;;;;;;;;;5032346;28;20032;-74
2022/01/25 10:46:24;;;;;;;10.80;6.80;;;;;;;;;;5034507;28;20021;-74
2022/01/25 10:48:53;;;;;;;10.55;6.43;;;;;;;;;;5031717;28;20028;-74
2022/01/25 10:51:30;;;;;;;9.45;6.25;;;;;;;;;;5027429;28;20038;-74
2022/01/25 10:54:15;;;;;;;11.07;6.43;;;;;;;;;;5027641;28;20022;-74
2022/01/25 10:56:43;;;;;;;11.82;7.07;;;;;;;;;;5034642;28;20030;-74
2022/01/25 10:59:13;;;;;;;11.15;6.68;;;;;;;;;;5032215;28;20056;-73
2022/01/25 11:01:40;;;;;;;10.00;6.20;;;;;;;;;;5032185;28;20593;-74
2022/01/25 11:04:13;;;;;;;8.05;5.47;;;;;;;;;;5030980;28;20033;-74
2022/01/25 11:06:40;;;;;;;11.25;6.47;;;;;;;;;;5030621;28;20022;-75
2022/01/25 11:09:07;;;;;;;12.35;6.55;;;;;;;;;;5032247;28;20039;-74
2022/01/25 11:11:38;;;;;;;12.15;6.25;;;;;;;;;;5033676;28;20018;-74
2022/01/25 11:16:51;;;;;;;11.80;6.55;;;;;;;;;;5032050;28;20033;-74
2022/01/25 11:19:18;;;;;;;8.60;6.30;;;;;;;;;;5032173;28;20034;-74
2022/01/25 11:21:44;;;;;;;10.95;6.63;;;;;;;;;;5030843;28;20029;-73
2022/01/25 11:24:14;;;;;;;9.23;5.55;;;;;;;;;;5062619;28;20035;-74
2022/01/25 11:26:42;;;;;;;9.07;5.70;;;;;;;;;;5034705;28;20026;-74
2022/01/25 11:29:09;;;;;;;10.80;6.00;;;;;;;;;;5032119;28;20033;-74
2022/01/25 11:31:36;;;;;;;16.65;10.35;;;;;;;;;;5031920;28;20021;-74
2022/01/25 11:34:03;;;;;;;12.85;7.13;;;;;;;;;;5032028;28;20467;-74
2022/01/25 11:36:32;;;;;;;10.85;5.93;;;;;;;;;;5029025;28;20030;-73
2022/01/25 11:38:58;;;;;;;9.45;6.10;;;;;;;;;;5033209;28;20038;-74
2022/01/25 11:41:26;;;;;;;10.70;6.65;;;;;;;;;;5032995;28;20026;-74
2022/01/25 11:44:12;;;;;;;12.05;6.78;;;;;;;;;;5032163;28;20035;-74
2022/01/25 11:46:40;;;;;;;8.25;6.53;;;;;;;;;;5031880;28;20659;-74
2022/01/25 11:49:10;;;;;;;9.30;6.90;;;;;;;;;;5032050;28;20033;-73
2022/01/25 11:51:37;;;;;;;12.15;7.63;;;;;;;;;;5032149;28;20034;-73
2022/01/25 11:54:04;;;;;;;8.40;6.93;;;;;;;;;;5035840;28;20426;-74
2022/01/25 11:56:30;;;;;;;8.35;6.38;;;;;;;;;;5035456;28;20060;-74
2022/01/25 11:58:58;;;;;;;10.02;6.50;;;;;;;;;;5035339;28;20054;-73
2022/01/25 12:01:26;;;;;;;12.82;7.50;;;;;;;;;;5035261;28;20025;-74
2022/01/25 12:03:56;;;;;;;9.80;6.80;;;;;;;;;;5035167;28;20025;-74
2022/01/25 12:06:28;;;;;;;13.65;7.93;;;;;;;;;;5015805;28;20029;-74
2022/01/25 12:09:18;;;;;;;13.07;8.40;;;;;;;;;;5037366;28;20377;-74
2022/01/25 12:11:51;;;;;;;11.10;8.55;;;;;;;;;;5037741;28;20056;-73
2022/01/25 12:14:23;;;;;;;18.10;8.52;;;;;;;;;;5036598;28;20438;-73
2022/01/25 12:16:57;;;;;;;19.98;10.07;;;;;;;;;;5035332;28;20033;-74
2022/01/25 12:19:35;;;;;;;15.48;10.23;;;;;;;;;;5035398;28;20029;-73
2022/01/25 12:22:06;;;;;;;16.33;9.15;;;;;;;;;;5035151;28;20021;-73
2022/01/25 12:24:36;;;;;;;15.73;10.30;;;;;;;;;;5032040;28;20030;-74
2022/01/25 12:29:43;;;;;;;14.43;10.38;;;;;;;;;;5037490;28;20037;-74
2022/01/25 12:32:36;;;;;;;15.38;9.93;;;;;;;;;;5034993;28;20030;-74
2022/01/25 12:35:05;;;;;;;17.50;9.85;;;;;;;;;;5033997;28;20063;-74
2022/01/25 12:37:43;;;;;;;14.90;9.00;;;;;;;;;;5035639;28;20021;-74
2022/01/25 12:40:25;;;;;;;14.10;9.07;;;;;;;;;;5031447;28;20051;-73
2022/01/25 12:42:52;;;;;;;14.73;9.13;;;;;;;;;;5066267;28;20514;-74
2022/01/25 12:45:19;;;;;;;12.35;8.32;;;;;;;;;;5031150;28;20040;-74
2022/01/25 12:47:58;;;;;;;11.25;7.45;;;;;;;;;;5033784;28;20079;-73
2022/01/25 12:50:25;;;;;;;12.07;7.78;;;;;;;;;;5033656;28;20078;-73
2022/01/25 12:52:52;;;;;;;10.82;7.93;;;;;;;;;;5034533;28;20045;-73
2022/01/25 12:55:23;;;;;;;13.18;6.80;;;;;;;;;;5034374;28;20031;-76
2022/01/25 12:57:50;;;;;;;;;;;;;;;;;;5034191;28;20405;-74
2022/01/25 13:00:17;;;;;;;9.18;6.10;;;;;;;;;;5032279;28;19917;-73
2022/01/25 13:02:43;;;;;;;9.30;6.50;;;;;;;;;;5035715;28;20410;-74
2022/01/25 13:05:15;;;;;;;9.95;6.60;;;;;;;;;;5035670;28;20021;-73
2022/01/25 13:07:42;;;;;;;10.32;6.07;;;;;;;;;;5033844;28;20022;-73
2022/01/25 13:10:11;;;;;;;9.20;5.60;;;;;;;;;;5034569;28;20017;-73
2022/01/25 13:12:54;;;;;;;12.95;6.72;;;;;;;;;;5031807;28;20030;-71
2022/01/25 13:15:51;;;;;;;6.55;5.30;;;;;;;;;;5046602;28;20039;-72
2022/01/25 13:18:18;;;;;;;11.07;5.97;;;;;;;;;;5046247;28;20029;-73
2022/01/25 13:20:48;;;;;;;10.77;6.07;;;;;;;;;;5052533;28;20051;-73
2022/01/25 13:23:14;;;;;;;9.02;6.78;;;;;;;;;;5034199;28;20028;-73
2022/01/25 13:28:22;;;;;;;8.70;5.80;;;;;;;;;;5032317;28;20021;-73
2022/01/25 13:30:49;;;;;;;8.25;6.50;;;;;;;;;;5030522;28;20033;-73
2022/01/25 13:33:20;;;;;;;13.38;8.00;;;;;;;;;;5018519;28;20026;-73
2022/01/25 13:35:52;;;;;;;;;;;;;;;;;;5037144;28;20026;-73
2022/01/25 13:38:20;;;;;;;20.88;13.63;;;;;;;;;;5035387;28;20286;-72
2022/01/25 13:45:57;;;;;;;12.55;7.80;;;;;;;;;;5031307;28;20028;-75
2022/01/25 13:48:24;;;;;;;9.65;6.68;;;;;;;;;;5025590;28;20029;-73
2022/01/25 13:50:55;;;;;;;12.82;6.13;;;;;;;;;;5035593;28;20017;-73
2022/01/25 13:53:22;;;;;;;8.18;5.93;;;;;;;;;;5033344;28;20025;-73
2022/01/25 13:55:50;;;;;;;9.57;5.75;;;;;;;;;;5033498;28;20030;-73
2022/01/25 13:58:23;;;;;;;8.88;5.35;;;;;;;;;;5034856;28;20665;-74
2022/01/25 14:00:50;;;;;;;8.05;5.65;;;;;;;;;;5034975;28;20029;-73
2022/01/25 14:03:17;;;;;;;8.52;5.93;;;;;;;;;;5030733;28;20026;-72
2022/01/25 14:05:43;;;;;;;13.00;5.55;;;;;;;;;;5036562;28;20029;-76
2022/01/25 14:08:10;;;;;;;9.32;5.47;;;;;;;;;;5037996;28;20545;-73
2022/01/25 14:10:59;;;;;;;8.48;5.72;;;;;;;;;;5032745;28;20025;-74
2022/01/25 14:21:55;;;;;;;11.18;6.05;;;;;;;;;;5021338;28;20027;-73
2022/01/25 14:24:29;;;;;;;7.55;5.30;;;;;;;;;;5012886;28;20577;-74
2022/01/25 14:26:58;;;;;;;10.98;5.70;;;;;;;;;;5039124;28;20025;-73
2022/01/25 14:29:24;;;;;;;10.18;5.80;;;;;;;;;;5031786;28;20021;-74
2022/01/25 14:31:51;;;;;;;14.85;5.57;;;;;;;;;;5037364;28;20031;-71
2022/01/25 14:34:20;;;;;;;13.98;6.15;;;;;;;;;;5035160;28;20025;-70
2022/01/25 14:36:47;;;;;;;20.05;9.25;;;;;;;;;;5032015;28;20021;-71
2022/01/25 14:39:16;;;;;;;12.23;7.28;;;;;;;;;;5030208;28;20534;-72
2022/01/25 14:41:43;;;;;;;9.73;5.85;;;;;;;;;;5035419;28;20020;-72
2022/01/25 14:44:11;;;;;;;10.23;5.47;;;;;;;;;;5032417;28;20033;-71
2022/01/25 14:46:48;;;;;;;13.82;5.65;;;;;;;;;;5036490;28;20028;-70
2022/01/25 14:49:21;;;;;;;11.70;5.68;;;;;;;;;;5038553;28;20048;-73
2022/01/25 14:51:49;;;;;;;11.27;5.20;;;;;;;;;;5015827;28;20026;-73
2022/01/25 14:54:26;;;;;;;10.27;5.43;;;;;;;;;;5045035;28;20036;-71
2022/01/25 14:56:56;;;;;;;6.93;4.82;;;;;;;;;;5034296;28;20476;-73
2022/01/25 14:59:31;;;;;;;8.77;5.07;;;;;;;;;;5033355;28;20029;-80
2022/01/25 15:01:57;;;;;;;6.78;4.32;;;;;;;;;;5029410;28;20025;-76
2022/01/25 15:04:25;;;;;;;11.40;4.60;;;;;;;;;;5032292;28;20028;-76
2022/01/25 15:06:51;;;;;;;8.77;4.63;;;;;;;;;;5032033;28;20047;-78
2022/01/25 15:09:18;;;;;;;9.63;4.70;;;;;;;;;;5028988;28;20053;-78
2022/01/25 15:11:45;;;;;;;7.65;4.28;;;;;;;;;;5029780;28;20037;-77
2022/01/25 15:14:20;;;;;;;9.65;4.28;;;;;;;;;;5032301;28;20033;-80
2022/01/25 15:16:47;;;;;;;7.60;5.03;;;;;;;;;;5030911;28;20021;-77
2022/01/25 15:19:18;;;;;;;9.30;4.15;;;;;;;;;;5032104;28;20043;-77
2022/01/25 15:21:45;;;;;;;;;;;;;;;;;;5031366;28;20024;-77
2022/01/25 15:24:11;;;;;;;8.45;4.93;;;;;;;;;;5028296;28;20267;-78
2022/01/25 15:26:38;;;;;;;8.32;4.45;;;;;;;;;;5038114;28;20041;-77
2022/01/25 15:29:07;;;;;;;13.00;6.15;;;;;;;;;;5037345;28;20026;-75
2022/01/25 15:31:33;;;;;;;10.10;4.93;;;;;;;;;;5036659;28;20035;-69
2022/01/25 15:34:00;;;;;;;6.90;4.68;;;;;;;;;;5036356;28;20024;-74
2022/01/25 15:36:26;;;;;;;12.60;4.82;;;;;;;;;;5032518;28;20108;-73
2022/01/25 15:38:53;;;;;;;12.02;5.18;;;;;;;;;;5037974;28;20033;-75
2022/01/25 15:41:23;;;;;;;11.48;5.35;;;;;;;;;;5037864;28;20033;-75
2022/01/25 15:43:55;;;;;;;7.75;4.90;;;;;;;;;;5041906;28;20017;-75
2022/01/25 15:46:30;;;;;;;6.18;4.30;;;;;;;;;;5043182;28;20027;-74
2022/01/25 15:48:58;;;;;;;7.38;3.95;;;;;;;;;;5032213;28;20029;-74
2022/01/25 15:51:24;;;;;;;12.57;4.10;;;;;;;;;;5031503;28;20032;-79
2022/01/25 15:53:51;;;;;;;6.88;3.97;;;;;;;;;;5039003;28;20020;-76
2022/01/25 15:56:17;;;;;;;8.10;3.88;;;;;;;;;;5043878;28;20055;-76
2022/01/25 15:58:44;;;;;;;8.52;4.00;;;;;;;;;;5039985;28;20107;-76
2022/01/25 16:01:11;;;;;;;10.35;3.97;;;;;;;;;;5035714;28;20017;-76
2022/01/25 16:03:38;;;;;;;15.23;4.53;;;;;;;;;;5032489;28;20022;-74
2022/01/25 16:06:05;;;;;;;8.23;4.32;;;;;;;;;;5034842;28;20063;-74
2022/01/25 16:08:32;;;;;;;8.98;4.60;;;;;;;;;;5038739;28;20030;-74
2022/01/25 16:10:59;;;;;;;8.30;4.20;;;;;;;;;;5035208;28;20028;-74
2022/01/25 16:13:25;;;;;;;27.38;7.63;;;;;;;;;;5037220;28;20025;-74
2022/01/25 16:15:52;;;;;;;13.18;5.15;;;;;;;;;;5034987;28;20481;-74
2022/01/25 16:18:18;;;;;;;6.22;4.15;;;;;;;;;;5031681;28;20036;-74
2022/01/25 16:20:45;;;;;;;10.43;4.45;;;;;;;;;;5037826;28;20032;-74
2022/01/25 16:23:11;;;;;;;8.57;4.50;;;;;;;;;;5035586;28;20033;-74
2022/01/25 16:25:38;;;;;;;11.85;5.05;;;;;;;;;;5035924;28;20031;-73
2022/01/25 16:28:05;;;;;;;12.45;5.18;;;;;;;;;;5035604;28;20491;-73
2022/01/25 16:30:33;;;;;;;6.88;4.82;;;;;;;;;;5030617;28;20028;-74
2022/01/25 16:33:00;;;;;;;6.75;4.93;;;;;;;;;;5045747;28;20025;-75
2022/01/25 16:35:26;;;;;;;9.30;5.18;;;;;;;;;;5034968;28;20051;-75
2022/01/25 16:37:53;;;;;;;11.52;5.40;;;;;;;;;;5035553;28;20033;-73
2022/01/25 16:40:20;;;;;;;10.80;5.28;;;;;;;;;;5034842;28;20056;-75